sensor_id;sensor_type;location;lat;lon;timestamp;P1;durP1;ratioP1;P2;durP2;ratioP2
15748;SDS011;7976;52.526;13.326;2023-08-01T00:01:50;12.98;;;4.32;;
15748;SDS011;7976;52.526;13.326;2023-08-01T00:04:17;11.20;;;3.70;;
15748;SDS011;7976;52.526;13.326;2023-08-01T00:06:43;10.50;;;3.85;;
15748;SDS011;7976;52.526;13.326;2023-08-01T00:09:10;9.88;;;3.67;;
15748;SDS011;7976;52.526;13.326;2023-08-01T00:11:37;9.85;;;3.55;;
15748;SDS011;7976;52.526;13.326;2023-08-01T00:14:04;10.75;;;3.35;;
15748;SDS011;7976;52.526;13.326;2023-08-01T00:16:30;8.75;;;3.67;;
15748;SDS011;7976;52.526;13.326;2023-08-01T00:18:59;11.25;;;3.53;;
15748;SDS011;7976;52.526;13.326;2023-08-01T00:21:26;11.10;;;3.45;;
15748;SDS011;7976;52.526;13.326;2023-08-01T00:23:53;11.18;;;3.40;;
15748;SDS011;7976;52.526;13.326;2023-08-01T00:26:20;9.80;;;3.65;;
15748;SDS011;7976;52.526;13.326;2023-08-01T00:28:46;11.68;;;3.22;;
15748;SDS011;7976;52.526;13.326;2023-08-01T00:31:13;11.57;;;3.40;;
15748;SDS011;7976;52.526;13.326;2023-08-01T00:33:40;10.82;;;3.22;;
15748;SDS011;7976;52.526;13.326;2023-08-01T00:36:08;9.23;;;3.50;;
15748;SDS011;7976;52.526;13.326;2023-08-01T00:38:36;9.48;;;3.13;;
15748;SDS011;7976;52.526;13.326;2023-08-01T00:41:03;11.93;;;3.35;;
15748;SDS011;7976;52.526;13.326;2023-08-01T00:43:30;9.63;;;2.92;;
15748;SDS011;7976;52.526;13.326;2023-08-01T00:45:58;12.30;;;3.50;;
15748;SDS011;7976;52.526;13.326;2023-08-01T00:48:27;8.40;;;2.80;;
15748;SDS011;7976;52.526;13.326;2023-08-01T00:50:55;8.38;;;3.10;;
15748;SDS011;7976;52.526;13.326;2023-08-01T00:53:24;9.10;;;2.80;;
15748;SDS011;7976;52.526;13.326;2023-08-01T00:55:51;7.85;;;2.60;;
15748;SDS011;7976;52.526;13.326;2023-08-01T00:58:20;9.15;;;3.15;;
15748;SDS011;7976;52.526;13.326;2023-08-01T01:00:47;9.68;;;2.67;;
15748;SDS011;7976;52.526;13.326;2023-08-01T01:03:14;8.48;;;3.00;;
15748;SDS011;7976;52.526;13.326;2023-08-01T01:05:47;7.95;;;2.60;;
15748;SDS011;7976;52.526;13.326;2023-08-01T01:08:22;9.82;;;2.67;;
15748;SDS011;7976;52.526;13.326;2023-08-01T01:10:51;7.28;;;2.35;;
15748;SDS011;7976;52.526;13.326;2023-08-01T01:13:18;8.10;;;2.90;;
15748;SDS011;7976;52.526;13.326;2023-08-01T01:15:45;7.20;;;2.47;;
15748;SDS011;7976;52.526;13.326;2023-08-01T01:18:12;8.05;;;2.58;;
15748;SDS011;7976;52.526;13.326;2023-08-01T01:20:40;8.38;;;2.67;;
15748;SDS011;7976;52.526;13.326;2023-08-01T01:23:08;12.40;;;2.80;;
15748;SDS011;7976;52.526;13.326;2023-08-01T01:25:37;10.93;;;3.00;;
15748;SDS011;7976;52.526;13.326;2023-08-01T01:28:06;8.32;;;2.70;;
15748;SDS011;7976;52.526;13.326;2023-08-01T01:30:34;9.15;;;2.90;;
15748;SDS011;7976;52.526;13.326;2023-08-01T01:33:01;9.32;;;2.72;;
15748;SDS011;7976;52.526;13.326;2023-08-01T01:35:29;10.13;;;3.25;;
15748;SDS011;7976;52.526;13.326;2023-08-01T01:38:00;8.30;;;3.03;;
15748;SDS011;7976;52.526;13.326;2023-08-01T01:40:28;8.80;;;2.80;;
15748;SDS011;7976;52.526;13.326;2023-08-01T01:42:55;8.40;;;2.80;;
15748;SDS011;7976;52.526;13.326;2023-08-01T01:45:23;9.82;;;3.05;;
15748;SDS011;7976;52.526;13.326;2023-08-01T01:47:50;17.83;;;3.10;;
15748;SDS011;7976;52.526;13.326;2023-08-01T01:50:17;7.80;;;2.95;;
15748;SDS011;7976;52.526;13.326;2023-08-01T01:52:44;9.93;;;4.07;;
15748;SDS011;7976;52.526;13.326;2023-08-01T01:55:12;8.18;;;3.00;;
15748;SDS011;7976;52.526;13.326;2023-08-01T01:57:39;8.63;;;3.38;;
15748;SDS011;7976;52.526;13.326;2023-08-01T02:00:06;10.05;;;3.28;;
15748;SDS011;7976;52.526;13.326;2023-08-01T02:02:38;9.70;;;3.40;;
15748;SDS011;7976;52.526;13.326;2023-08-01T02:05:05;9.38;;;3.22;;
15748;SDS011;7976;52.526;13.326;2023-08-01T02:07:32;8.80;;;3.20;;
15748;SDS011;7976;52.526;13.326;2023-08-01T02:09:59;8.88;;;3.30;;
15748;SDS011;7976;52.526;13.326;2023-08-01T02:12:31;9.90;;;3.13;;
15748;SDS011;7976;52.526;13.326;2023-08-01T02:14:59;10.80;;;3.70;;
15748;SDS011;7976;52.526;13.326;2023-08-01T02:17:26;9.98;;;3.03;;
15748;SDS011;7976;52.526;13.326;2023-08-01T02:19:53;9.68;;;3.20;;
15748;SDS011;7976;52.526;13.326;2023-08-01T02:22:20;8.90;;;3.28;;
15748;SDS011;7976;52.526;13.326;2023-08-01T02:24:47;10.60;;;3.25;;
15748;SDS011;7976;52.526;13.326;2023-08-01T02:27:14;8.88;;;2.95;;
15748;SDS011;7976;52.526;13.326;2023-08-01T02:29:42;10.25;;;3.08;;
15748;SDS011;7976;52.526;13.326;2023-08-01T02:32:09;8.68;;;3.05;;
15748;SDS011;7976;52.526;13.326;2023-08-01T02:34:36;10.10;;;3.30;;
15748;SDS011;7976;52.526;13.326;2023-08-01T02:37:03;8.82;;;3.25;;
15748;SDS011;7976;52.526;13.326;2023-08-01T02:39:31;9.88;;;3.15;;
15748;SDS011;7976;52.526;13.326;2023-08-01T02:41:58;9.13;;;3.13;;
15748;SDS011;7976;52.526;13.326;2023-08-01T02:44:24;9.57;;;3.42;;
15748;SDS011;7976;52.526;13.326;2023-08-01T02:46:53;8.68;;;3.67;;
15748;SDS011;7976;52.526;13.326;2023-08-01T02:49:20;9.90;;;3.50;;
15748;SDS011;7976;52.526;13.326;2023-08-01T02:51:47;8.70;;;3.00;;
15748;SDS011;7976;52.526;13.326;2023-08-01T02:54:14;10.70;;;4.05;;
15748;SDS011;7976;52.526;13.326;2023-08-01T02:56:41;9.90;;;3.33;;
15748;SDS011;7976;52.526;13.326;2023-08-01T02:59:07;9.35;;;3.50;;
15748;SDS011;7976;52.526;13.326;2023-08-01T03:01:35;8.05;;;3.17;;
15748;SDS011;7976;52.526;13.326;2023-08-01T03:04:03;10.45;;;3.35;;
15748;SDS011;7976;52.526;13.326;2023-08-01T03:06:32;9.18;;;2.83;;
15748;SDS011;7976;52.526;13.326;2023-08-01T03:08:59;9.32;;;3.00;;
15748;SDS011;7976;52.526;13.326;2023-08-01T03:11:27;8.98;;;3.38;;
15748;SDS011;7976;52.526;13.326;2023-08-01T03:13:54;12.27;;;3.38;;
15748;SDS011;7976;52.526;13.326;2023-08-01T03:16:21;9.95;;;3.60;;
15748;SDS011;7976;52.526;13.326;2023-08-01T03:18:48;9.50;;;3.42;;
15748;SDS011;7976;52.526;13.326;2023-08-01T03:21:16;8.55;;;3.20;;
15748;SDS011;7976;52.526;13.326;2023-08-01T03:23:43;8.63;;;3.33;;
15748;SDS011;7976;52.526;13.326;2023-08-01T03:26:10;9.10;;;2.90;;
15748;SDS011;7976;52.526;13.326;2023-08-01T03:28:37;9.27;;;2.90;;
15748;SDS011;7976;52.526;13.326;2023-08-01T03:31:05;8.10;;;3.05;;
15748;SDS011;7976;52.526;13.326;2023-08-01T03:33:32;8.65;;;3.10;;
15748;SDS011;7976;52.526;13.326;2023-08-01T03:36:00;9.65;;;3.15;;
15748;SDS011;7976;52.526;13.326;2023-08-01T03:38:30;8.60;;;3.22;;
15748;SDS011;7976;52.526;13.326;2023-08-01T03:40:57;8.90;;;3.42;;
15748;SDS011;7976;52.526;13.326;2023-08-01T03:43:24;9.77;;;3.40;;
15748;SDS011;7976;52.526;13.326;2023-08-01T03:45:51;10.15;;;3.08;;
15748;SDS011;7976;52.526;13.326;2023-08-01T03:48:18;11.45;;;3.00;;
15748;SDS011;7976;52.526;13.326;2023-08-01T03:50:44;8.82;;;3.08;;
15748;SDS011;7976;52.526;13.326;2023-08-01T03:53:11;9.57;;;3.20;;
15748;SDS011;7976;52.526;13.326;2023-08-01T03:55:39;9.63;;;3.13;;
15748;SDS011;7976;52.526;13.326;2023-08-01T03:58:07;9.38;;;3.70;;
15748;SDS011;7976;52.526;13.326;2023-08-01T04:00:34;9.32;;;3.20;;
15748;SDS011;7976;52.526;13.326;2023-08-01T04:03:01;9.35;;;2.95;;
15748;SDS011;7976;52.526;13.326;2023-08-01T04:05:28;7.80;;;2.92;;
15748;SDS011;7976;52.526;13.326;2023-08-01T04:07:55;9.27;;;3.28;;
15748;SDS011;7976;52.526;13.326;2023-08-01T04:10:22;8.98;;;2.92;;
15748;SDS011;7976;52.526;13.326;2023-08-01T04:12:51;10.90;;;3.00;;
15748;SDS011;7976;52.526;13.326;2023-08-01T04:15:18;9.45;;;3.25;;
15748;SDS011;7976;52.526;13.326;2023-08-01T04:17:45;7.55;;;2.92;;
15748;SDS011;7976;52.526;13.326;2023-08-01T04:20:11;9.40;;;3.33;;
15748;SDS011;7976;52.526;13.326;2023-08-01T04:22:38;10.18;;;2.92;;
15748;SDS011;7976;52.526;13.326;2023-08-01T04:25:05;9.95;;;3.00;;
15748;SDS011;7976;52.526;13.326;2023-08-01T04:27:33;8.20;;;3.20;;
15748;SDS011;7976;52.526;13.326;2023-08-01T04:30:01;9.25;;;2.90;;
15748;SDS011;7976;52.526;13.326;2023-08-01T04:32:28;6.97;;;2.47;;
15748;SDS011;7976;52.526;13.326;2023-08-01T04:34:55;7.63;;;2.92;;
15748;SDS011;7976;52.526;13.326;2023-08-01T04:37:22;9.32;;;2.75;;
15748;SDS011;7976;52.526;13.326;2023-08-01T04:39:50;6.63;;;2.17;;
15748;SDS011;7976;52.526;13.326;2023-08-01T04:42:17;8.10;;;2.78;;
15748;SDS011;7976;52.526;13.326;2023-08-01T04:44:44;8.95;;;3.03;;
15748;SDS011;7976;52.526;13.326;2023-08-01T04:47:12;9.95;;;3.00;;
15748;SDS011;7976;52.526;13.326;2023-08-01T04:49:40;7.80;;;2.50;;
15748;SDS011;7976;52.526;13.326;2023-08-01T04:52:07;7.57;;;2.53;;
15748;SDS011;7976;52.526;13.326;2023-08-01T04:54:34;8.25;;;3.08;;
15748;SDS011;7976;52.526;13.326;2023-08-01T04:57:01;9.20;;;2.95;;
15748;SDS011;7976;52.526;13.326;2023-08-01T04:59:27;6.68;;;2.17;;
15748;SDS011;7976;52.526;13.326;2023-08-01T05:01:54;8.02;;;2.40;;
15748;SDS011;7976;52.526;13.326;2023-08-01T05:04:22;7.43;;;2.50;;
15748;SDS011;7976;52.526;13.326;2023-08-01T05:06:50;8.65;;;2.60;;
15748;SDS011;7976;52.526;13.326;2023-08-01T05:09:17;8.38;;;2.22;;
15748;SDS011;7976;52.526;13.326;2023-08-01T05:11:43;7.05;;;2.47;;
15748;SDS011;7976;52.526;13.326;2023-08-01T05:14:10;8.05;;;2.20;;
15748;SDS011;7976;52.526;13.326;2023-08-01T05:16:37;7.68;;;2.60;;
15748;SDS011;7976;52.526;13.326;2023-08-01T05:19:04;11.07;;;3.40;;
15748;SDS011;7976;52.526;13.326;2023-08-01T05:21:32;9.18;;;2.90;;
15748;SDS011;7976;52.526;13.326;2023-08-01T05:23:59;6.68;;;2.28;;
15748;SDS011;7976;52.526;13.326;2023-08-01T05:26:25;7.65;;;2.53;;
15748;SDS011;7976;52.526;13.326;2023-08-01T05:28:52;5.80;;;2.10;;
15748;SDS011;7976;52.526;13.326;2023-08-01T05:31:19;8.10;;;2.50;;
15748;SDS011;7976;52.526;13.326;2023-08-01T05:33:46;8.30;;;2.80;;
15748;SDS011;7976;52.526;13.326;2023-08-01T05:36:12;8.10;;;2.72;;
15748;SDS011;7976;52.526;13.326;2023-08-01T05:38:41;8.95;;;2.60;;
15748;SDS011;7976;52.526;13.326;2023-08-01T05:41:07;8.15;;;2.45;;
15748;SDS011;7976;52.526;13.326;2023-08-01T05:43:34;8.27;;;2.95;;
15748;SDS011;7976;52.526;13.326;2023-08-01T05:46:01;7.53;;;2.67;;
15748;SDS011;7976;52.526;13.326;2023-08-01T05:48:28;9.35;;;2.90;;
15748;SDS011;7976;52.526;13.326;2023-08-01T05:50:55;9.15;;;2.92;;
15748;SDS011;7976;52.526;13.326;2023-08-01T05:53:23;7.85;;;2.53;;
15748;SDS011;7976;52.526;13.326;2023-08-01T05:55:51;8.43;;;2.83;;
15748;SDS011;7976;52.526;13.326;2023-08-01T05:58:18;8.45;;;2.97;;
15748;SDS011;7976;52.526;13.326;2023-08-01T06:00:45;7.63;;;2.63;;
15748;SDS011;7976;52.526;13.326;2023-08-01T06:03:12;8.45;;;2.90;;
15748;SDS011;7976;52.526;13.326;2023-08-01T06:05:39;8.82;;;2.78;;
15748;SDS011;7976;52.526;13.326;2023-08-01T06:08:06;9.60;;;2.75;;
15748;SDS011;7976;52.526;13.326;2023-08-01T06:10:34;7.90;;;2.53;;
15748;SDS011;7976;52.526;13.326;2023-08-01T06:13:03;8.20;;;2.88;;
15748;SDS011;7976;52.526;13.326;2023-08-01T06:15:29;8.70;;;3.00;;
15748;SDS011;7976;52.526;13.326;2023-08-01T06:17:56;10.23;;;2.60;;
15748;SDS011;7976;52.526;13.326;2023-08-01T06:20:23;8.82;;;2.85;;
15748;SDS011;7976;52.526;13.326;2023-08-01T06:22:50;7.82;;;2.83;;
15748;SDS011;7976;52.526;13.326;2023-08-01T06:25:17;7.13;;;2.63;;
15748;SDS011;7976;52.526;13.326;2023-08-01T06:27:44;7.35;;;2.50;;
15748;SDS011;7976;52.526;13.326;2023-08-01T06:30:12;7.85;;;2.53;;
15748;SDS011;7976;52.526;13.326;2023-08-01T06:32:39;9.60;;;2.72;;
15748;SDS011;7976;52.526;13.326;2023-08-01T06:35:06;6.60;;;2.40;;
15748;SDS011;7976;52.526;13.326;2023-08-01T06:37:34;9.23;;;2.83;;
15748;SDS011;7976;52.526;13.326;2023-08-01T06:40:00;9.35;;;2.80;;
15748;SDS011;7976;52.526;13.326;2023-08-01T06:42:29;9.68;;;2.85;;
15748;SDS011;7976;52.526;13.326;2023-08-01T06:44:56;8.73;;;2.58;;
15748;SDS011;7976;52.526;13.326;2023-08-01T06:47:24;8.80;;;3.05;;
15748;SDS011;7976;52.526;13.326;2023-08-01T06:49:51;9.05;;;2.88;;
15748;SDS011;7976;52.526;13.326;2023-08-01T06:52:18;7.40;;;2.70;;
15748;SDS011;7976;52.526;13.326;2023-08-01T06:54:45;8.07;;;2.60;;
15748;SDS011;7976;52.526;13.326;2023-08-01T06:57:12;9.20;;;2.50;;
15748;SDS011;7976;52.526;13.326;2023-08-01T06:59:39;9.02;;;2.60;;
15748;SDS011;7976;52.526;13.326;2023-08-01T07:02:06;9.30;;;2.95;;
15748;SDS011;7976;52.526;13.326;2023-08-01T07:04:35;9.30;;;2.92;;
15748;SDS011;7976;52.526;13.326;2023-08-01T07:07:03;8.32;;;2.45;;
15748;SDS011;7976;52.526;13.326;2023-08-01T07:09:30;8.50;;;2.80;;
15748;SDS011;7976;52.526;13.326;2023-08-01T07:11:56;7.53;;;2.70;;
15748;SDS011;7976;52.526;13.326;2023-08-01T07:14:23;9.13;;;2.72;;
15748;SDS011;7976;52.526;13.326;2023-08-01T07:16:50;7.50;;;2.50;;
15748;SDS011;7976;52.526;13.326;2023-08-01T07:19:17;6.78;;;2.45;;
15748;SDS011;7976;52.526;13.326;2023-08-01T07:21:45;7.32;;;2.63;;
15748;SDS011;7976;52.526;13.326;2023-08-01T07:24:13;6.57;;;2.33;;
15748;SDS011;7976;52.526;13.326;2023-08-01T07:26:40;7.63;;;2.67;;
15748;SDS011;7976;52.526;13.326;2023-08-01T07:29:08;9.85;;;2.70;;
15748;SDS011;7976;52.526;13.326;2023-08-01T07:31:36;8.52;;;2.65;;
15748;SDS011;7976;52.526;13.326;2023-08-01T07:34:03;5.78;;;2.33;;
15748;SDS011;7976;52.526;13.326;2023-08-01T07:36:30;7.68;;;2.50;;
15748;SDS011;7976;52.526;13.326;2023-08-01T07:39:01;7.85;;;2.30;;
15748;SDS011;7976;52.526;13.326;2023-08-01T07:41:29;6.38;;;2.05;;
15748;SDS011;7976;52.526;13.326;2023-08-01T07:43:58;9.02;;;2.22;;
15748;SDS011;7976;52.526;13.326;2023-08-01T07:46:27;8.68;;;2.55;;
15748;SDS011;7976;52.526;13.326;2023-08-01T07:48:54;6.97;;;2.40;;
15748;SDS011;7976;52.526;13.326;2023-08-01T07:51:21;7.47;;;2.38;;
15748;SDS011;7976;52.526;13.326;2023-08-01T07:53:48;7.10;;;2.22;;
15748;SDS011;7976;52.526;13.326;2023-08-01T07:56:19;7.20;;;2.40;;
15748;SDS011;7976;52.526;13.326;2023-08-01T07:58:46;8.77;;;2.83;;
15748;SDS011;7976;52.526;13.326;2023-08-01T08:01:13;7.38;;;2.28;;
15748;SDS011;7976;52.526;13.326;2023-08-01T08:03:40;6.10;;;2.10;;
15748;SDS011;7976;52.526;13.326;2023-08-01T08:06:07;6.47;;;2.13;;
15748;SDS011;7976;52.526;13.326;2023-08-01T08:08:34;6.35;;;2.00;;
15748;SDS011;7976;52.526;13.326;2023-08-01T08:11:01;8.00;;;2.35;;
15748;SDS011;7976;52.526;13.326;2023-08-01T08:13:30;7.63;;;2.65;;
15748;SDS011;7976;52.526;13.326;2023-08-01T08:15:57;8.30;;;2.58;;
15748;SDS011;7976;52.526;13.326;2023-08-01T08:18:26;9.38;;;2.72;;
15748;SDS011;7976;52.526;13.326;2023-08-01T08:20:53;9.38;;;2.45;;
15748;SDS011;7976;52.526;13.326;2023-08-01T08:23:20;7.97;;;2.28;;
15748;SDS011;7976;52.526;13.326;2023-08-01T08:25:47;7.10;;;2.10;;
15748;SDS011;7976;52.526;13.326;2023-08-01T08:28:15;8.80;;;2.20;;
15748;SDS011;7976;52.526;13.326;2023-08-01T08:30:55;7.25;;;2.15;;
15748;SDS011;7976;52.526;13.326;2023-08-01T08:33:22;6.90;;;2.05;;
15748;SDS011;7976;52.526;13.326;2023-08-01T08:35:55;5.80;;;2.15;;
15748;SDS011;7976;52.526;13.326;2023-08-01T08:38:22;6.38;;;2.03;;
15748;SDS011;7976;52.526;13.326;2023-08-01T08:40:52;7.40;;;2.28;;
15748;SDS011;7976;52.526;13.326;2023-08-01T08:43:32;6.30;;;2.10;;
15748;SDS011;7976;52.526;13.326;2023-08-01T08:46:02;6.88;;;2.08;;
15748;SDS011;7976;52.526;13.326;2023-08-01T08:48:33;9.02;;;2.05;;
15748;SDS011;7976;52.526;13.326;2023-08-01T08:51:01;6.80;;;2.25;;
15748;SDS011;7976;52.526;13.326;2023-08-01T08:53:29;6.00;;;1.75;;
15748;SDS011;7976;52.526;13.326;2023-08-01T08:55:58;6.03;;;1.70;;
15748;SDS011;7976;52.526;13.326;2023-08-01T08:58:26;5.43;;;1.70;;
15748;SDS011;7976;52.526;13.326;2023-08-01T09:00:56;6.13;;;1.92;;
15748;SDS011;7976;52.526;13.326;2023-08-01T09:03:25;6.53;;;2.00;;
15748;SDS011;7976;52.526;13.326;2023-08-01T09:05:54;5.30;;;1.75;;
15748;SDS011;7976;52.526;13.326;2023-08-01T09:08:30;6.05;;;1.77;;
15748;SDS011;7976;52.526;13.326;2023-08-01T09:11:01;5.55;;;1.73;;
15748;SDS011;7976;52.526;13.326;2023-08-01T09:13:29;3.63;;;1.45;;
15748;SDS011;7976;52.526;13.326;2023-08-01T09:15:56;6.63;;;1.90;;
15748;SDS011;7976;52.526;13.326;2023-08-01T09:18:23;5.53;;;1.80;;
15748;SDS011;7976;52.526;13.326;2023-08-01T09:20:51;5.90;;;1.75;;
15748;SDS011;7976;52.526;13.326;2023-08-01T09:23:18;6.65;;;2.10;;
15748;SDS011;7976;52.526;13.326;2023-08-01T09:25:45;5.65;;;1.40;;
15748;SDS011;7976;52.526;13.326;2023-08-01T09:28:15;6.68;;;1.70;;
15748;SDS011;7976;52.526;13.326;2023-08-01T09:30:48;9.15;;;2.13;;
15748;SDS011;7976;52.526;13.326;2023-08-01T09:33:16;3.78;;;1.50;;
15748;SDS011;7976;52.526;13.326;2023-08-01T09:35:44;4.25;;;1.25;;
15748;SDS011;7976;52.526;13.326;2023-08-01T09:38:13;3.75;;;1.45;;
15748;SDS011;7976;52.526;13.326;2023-08-01T09:40:41;5.18;;;1.48;;
15748;SDS011;7976;52.526;13.326;2023-08-01T09:43:10;4.00;;;1.40;;
15748;SDS011;7976;52.526;13.326;2023-08-01T09:45:48;3.92;;;1.40;;
15748;SDS011;7976;52.526;13.326;2023-08-01T09:48:23;4.72;;;1.60;;
15748;SDS011;7976;52.526;13.326;2023-08-01T09:50:52;4.20;;;1.60;;
15748;SDS011;7976;52.526;13.326;2023-08-01T09:53:32;5.57;;;1.67;;
15748;SDS011;7976;52.526;13.326;2023-08-01T09:56:00;4.60;;;1.70;;
15748;SDS011;7976;52.526;13.326;2023-08-01T09:58:29;6.05;;;1.80;;
15748;SDS011;7976;52.526;13.326;2023-08-01T10:01:00;4.88;;;1.50;;
15748;SDS011;7976;52.526;13.326;2023-08-01T10:03:27;4.22;;;1.60;;
15748;SDS011;7976;52.526;13.326;2023-08-01T10:05:55;5.78;;;1.40;;
15748;SDS011;7976;52.526;13.326;2023-08-01T10:08:30;6.50;;;1.92;;
15748;SDS011;7976;52.526;13.326;2023-08-01T10:11:05;4.63;;;1.50;;
15748;SDS011;7976;52.526;13.326;2023-08-01T10:13:33;6.15;;;1.85;;
15748;SDS011;7976;52.526;13.326;2023-08-01T10:16:04;5.22;;;1.50;;
15748;SDS011;7976;52.526;13.326;2023-08-01T10:18:36;3.28;;;1.20;;
15748;SDS011;7976;52.526;13.326;2023-08-01T10:21:04;4.70;;;1.20;;
15748;SDS011;7976;52.526;13.326;2023-08-01T10:23:35;4.82;;;1.40;;
15748;SDS011;7976;52.526;13.326;2023-08-01T10:26:05;3.88;;;1.20;;
15748;SDS011;7976;52.526;13.326;2023-08-01T10:28:35;4.47;;;1.25;;
15748;SDS011;7976;52.526;13.326;2023-08-01T10:31:07;4.18;;;1.40;;
15748;SDS011;7976;52.526;13.326;2023-08-01T10:33:36;4.22;;;1.55;;
15748;SDS011;7976;52.526;13.326;2023-08-01T10:36:12;3.55;;;1.25;;
15748;SDS011;7976;52.526;13.326;2023-08-01T10:38:51;5.53;;;1.45;;
15748;SDS011;7976;52.526;13.326;2023-08-01T10:41:21;8.20;;;1.60;;
15748;SDS011;7976;52.526;13.326;2023-08-01T10:44:03;5.93;;;1.60;;
15748;SDS011;7976;52.526;13.326;2023-08-01T10:46:47;4.20;;;1.55;;
15748;SDS011;7976;52.526;13.326;2023-08-01T10:49:16;5.15;;;1.60;;
15748;SDS011;7976;52.526;13.326;2023-08-01T10:51:44;4.72;;;1.40;;
15748;SDS011;7976;52.526;13.326;2023-08-01T10:54:20;3.85;;;1.30;;
15748;SDS011;7976;52.526;13.326;2023-08-01T10:56:48;4.15;;;1.10;;
15748;SDS011;7976;52.526;13.326;2023-08-01T10:59:17;5.30;;;1.60;;
15748;SDS011;7976;52.526;13.326;2023-08-01T11:01:47;4.40;;;1.38;;
15748;SDS011;7976;52.526;13.326;2023-08-01T11:04:16;4.80;;;1.40;;
15748;SDS011;7976;52.526;13.326;2023-08-01T11:06:47;3.72;;;1.30;;
15748;SDS011;7976;52.526;13.326;2023-08-01T11:09:17;5.25;;;1.30;;
15748;SDS011;7976;52.526;13.326;2023-08-01T11:11:48;3.55;;;1.10;;
15748;SDS011;7976;52.526;13.326;2023-08-01T11:14:19;3.22;;;1.00;;
15748;SDS011;7976;52.526;13.326;2023-08-01T11:16:47;6.03;;;2.00;;
15748;SDS011;7976;52.526;13.326;2023-08-01T11:19:19;7.93;;;1.75;;
15748;SDS011;7976;52.526;13.326;2023-08-01T11:21:47;7.55;;;1.92;;
15748;SDS011;7976;52.526;13.326;2023-08-01T11:24:15;7.15;;;1.90;;
15748;SDS011;7976;52.526;13.326;2023-08-01T11:26:44;6.85;;;1.98;;
15748;SDS011;7976;52.526;13.326;2023-08-01T11:29:13;3.40;;;1.42;;
15748;SDS011;7976;52.526;13.326;2023-08-01T11:31:46;6.15;;;1.98;;
15748;SDS011;7976;52.526;13.326;2023-08-01T11:34:19;6.03;;;1.83;;
15748;SDS011;7976;52.526;13.326;2023-08-01T11:36:46;6.30;;;1.98;;
15748;SDS011;7976;52.526;13.326;2023-08-01T11:39:16;6.47;;;1.98;;
15748;SDS011;7976;52.526;13.326;2023-08-01T11:41:45;8.45;;;2.20;;
15748;SDS011;7976;52.526;13.326;2023-08-01T11:44:12;7.90;;;2.30;;
15748;SDS011;7976;52.526;13.326;2023-08-01T11:46:39;8.05;;;2.50;;
15748;SDS011;7976;52.526;13.326;2023-08-01T11:49:07;7.53;;;2.47;;
15748;SDS011;7976;52.526;13.326;2023-08-01T11:51:41;7.63;;;2.67;;
15748;SDS011;7976;52.526;13.326;2023-08-01T11:54:09;8.45;;;2.65;;
15748;SDS011;7976;52.526;13.326;2023-08-01T11:56:38;9.98;;;3.15;;
15748;SDS011;7976;52.526;13.326;2023-08-01T11:59:11;8.70;;;2.90;;
15748;SDS011;7976;52.526;13.326;2023-08-01T12:01:39;7.88;;;2.80;;
15748;SDS011;7976;52.526;13.326;2023-08-01T12:04:09;9.25;;;3.05;;
15748;SDS011;7976;52.526;13.326;2023-08-01T12:06:36;9.98;;;3.78;;
15748;SDS011;7976;52.526;13.326;2023-08-01T12:09:06;8.60;;;2.92;;
15748;SDS011;7976;52.526;13.326;2023-08-01T12:11:36;9.70;;;3.30;;
15748;SDS011;7976;52.526;13.326;2023-08-01T12:14:04;7.93;;;3.00;;
15748;SDS011;7976;52.526;13.326;2023-08-01T12:16:36;10.88;;;3.65;;
15748;SDS011;7976;52.526;13.326;2023-08-01T12:19:04;10.63;;;3.58;;
15748;SDS011;7976;52.526;13.326;2023-08-01T12:21:32;9.60;;;3.38;;
15748;SDS011;7976;52.526;13.326;2023-08-01T12:24:00;7.93;;;3.25;;
15748;SDS011;7976;52.526;13.326;2023-08-01T12:26:27;8.25;;;3.00;;
15748;SDS011;7976;52.526;13.326;2023-08-01T12:28:54;10.57;;;3.13;;
15748;SDS011;7976;52.526;13.326;2023-08-01T12:31:22;9.68;;;2.97;;
15748;SDS011;7976;52.526;13.326;2023-08-01T12:33:50;8.88;;;3.33;;
15748;SDS011;7976;52.526;13.326;2023-08-01T12:36:18;8.55;;;2.95;;
15748;SDS011;7976;52.526;13.326;2023-08-01T12:38:46;9.70;;;2.92;;
15748;SDS011;7976;52.526;13.326;2023-08-01T12:41:13;10.43;;;3.30;;
15748;SDS011;7976;52.526;13.326;2023-08-01T12:43:42;12.23;;;3.58;;
15748;SDS011;7976;52.526;13.326;2023-08-01T12:46:13;8.18;;;2.90;;
15748;SDS011;7976;52.526;13.326;2023-08-01T12:48:40;8.60;;;3.60;;
15748;SDS011;7976;52.526;13.326;2023-08-01T12:51:08;11.35;;;3.50;;
15748;SDS011;7976;52.526;13.326;2023-08-01T12:53:35;8.73;;;3.40;;
15748;SDS011;7976;52.526;13.326;2023-08-01T12:56:07;8.60;;;3.30;;
15748;SDS011;7976;52.526;13.326;2023-08-01T12:58:34;8.80;;;3.38;;
15748;SDS011;7976;52.526;13.326;2023-08-01T13:01:01;9.43;;;3.38;;
15748;SDS011;7976;52.526;13.326;2023-08-01T13:03:29;11.13;;;4.10;;
15748;SDS011;7976;52.526;13.326;2023-08-01T13:05:56;9.93;;;3.53;;
15748;SDS011;7976;52.526;13.326;2023-08-01T13:08:25;9.48;;;3.35;;
15748;SDS011;7976;52.526;13.326;2023-08-01T13:10:54;10.98;;;3.33;;
15748;SDS011;7976;52.526;13.326;2023-08-01T13:13:21;8.65;;;3.10;;
15748;SDS011;7976;52.526;13.326;2023-08-01T13:15:48;8.18;;;3.03;;
15748;SDS011;7976;52.526;13.326;2023-08-01T13:18:15;10.73;;;3.60;;
15748;SDS011;7976;52.526;13.326;2023-08-01T13:20:42;8.45;;;3.10;;
15748;SDS011;7976;52.526;13.326;2023-08-01T13:23:09;7.82;;;3.03;;
15748;SDS011;7976;52.526;13.326;2023-08-01T13:25:38;8.40;;;3.03;;
15748;SDS011;7976;52.526;13.326;2023-08-01T13:28:05;10.70;;;3.05;;
15748;SDS011;7976;52.526;13.326;2023-08-01T13:30:32;9.05;;;3.33;;
15748;SDS011;7976;52.526;13.326;2023-08-01T13:32:59;10.52;;;3.28;;
15748;SDS011;7976;52.526;13.326;2023-08-01T13:35:26;8.93;;;3.25;;
15748;SDS011;7976;52.526;13.326;2023-08-01T13:37:53;7.88;;;2.90;;
15748;SDS011;7976;52.526;13.326;2023-08-01T13:40:24;10.77;;;2.85;;
15748;SDS011;7976;52.526;13.326;2023-08-01T13:42:53;12.10;;;3.60;;
15748;SDS011;7976;52.526;13.326;2023-08-01T13:45:20;10.45;;;2.97;;
15748;SDS011;7976;52.526;13.326;2023-08-01T13:47:47;8.65;;;2.88;;
15748;SDS011;7976;52.526;13.326;2023-08-01T13:50:14;9.45;;;3.35;;
15748;SDS011;7976;52.526;13.326;2023-08-01T13:52:44;9.25;;;2.80;;
15748;SDS011;7976;52.526;13.326;2023-08-01T13:55:12;8.70;;;2.60;;
15748;SDS011;7976;52.526;13.326;2023-08-01T13:57:42;8.18;;;2.83;;
15748;SDS011;7976;52.526;13.326;2023-08-01T14:00:11;9.00;;;3.30;;
15748;SDS011;7976;52.526;13.326;2023-08-01T14:05:15;9.95;;;3.40;;
15748;SDS011;7976;52.526;13.326;2023-08-01T14:07:42;12.18;;;3.50;;
15748;SDS011;7976;52.526;13.326;2023-08-01T14:10:09;11.57;;;3.42;;
15748;SDS011;7976;52.526;13.326;2023-08-01T14:12:36;10.85;;;3.15;;
15748;SDS011;7976;52.526;13.326;2023-08-01T14:15:03;9.18;;;3.38;;
15748;SDS011;7976;52.526;13.326;2023-08-01T14:17:32;8.00;;;2.90;;
15748;SDS011;7976;52.526;13.326;2023-08-01T14:19:59;9.18;;;2.83;;
15748;SDS011;7976;52.526;13.326;2023-08-01T14:22:29;8.68;;;3.15;;
15748;SDS011;7976;52.526;13.326;2023-08-01T14:24:56;12.18;;;3.38;;
15748;SDS011;7976;52.526;13.326;2023-08-01T14:27:23;8.85;;;2.97;;
15748;SDS011;7976;52.526;13.326;2023-08-01T14:29:49;11.75;;;3.00;;
15748;SDS011;7976;52.526;13.326;2023-08-01T14:32:17;9.65;;;3.00;;
15748;SDS011;7976;52.526;13.326;2023-08-01T14:34:47;9.05;;;3.17;;
15748;SDS011;7976;52.526;13.326;2023-08-01T14:37:13;10.40;;;2.97;;
15748;SDS011;7976;52.526;13.326;2023-08-01T14:39:40;9.00;;;3.20;;
15748;SDS011;7976;52.526;13.326;2023-08-01T14:42:07;10.30;;;3.28;;
15748;SDS011;7976;52.526;13.326;2023-08-01T14:44:34;12.82;;;3.63;;
15748;SDS011;7976;52.526;13.326;2023-08-01T14:47:01;10.52;;;2.70;;
15748;SDS011;7976;52.526;13.326;2023-08-01T14:49:28;7.72;;;2.67;;
15748;SDS011;7976;52.526;13.326;2023-08-01T14:51:56;8.27;;;2.55;;
15748;SDS011;7976;52.526;13.326;2023-08-01T14:54:23;8.23;;;2.63;;